Monte Caseros, Argentina

2:36 PM ART on February 11, 2016 (GMT -0300)
Rubem Berta International | | Change Station
CLOSE
Current Station
Airport
Location: Uruguaiana Airport,
Elevation: 243 ft
Nearby Weather Stations

Elev 243 ft 29.78 °S, 57.04 °W | Updated 36 minutes ago

Partly Cloudy
Partly Cloudy
91 °F
Feels Like 97 °F
N
12
Wind Variable Wind from East

Today
High -- | Low -- °F
--% Chance of Precip.
Yesterday
High -- | Low -- °F
Precip. -- in
Pressure 29.86 in
Visibility 6.2 miles
Clouds Few 4000 ft
Heat Index 97 °F
Dew Point 70 °F
Humidity 49%
Rainfall 0.00 in
Snow Depth Not available.
6:26 AM 7:42 PM
Waxing Crescent, 13% visible
METAR SBUG 111700Z 08010KT 9999 FEW040 33/21 Q1011
Pressure 29.86 in
Visibility 6.2 miles
Clouds Few 4000 ft
Heat Index 97 °F
Dew Point 70 °F
Humidity 49%
Rainfall 0.00 in
Snow Depth Not available.
6:26 AM 7:42 PM
Waxing Crescent, 13% visible
METAR SBUG 111700Z 08010KT 9999 FEW040 33/21 Q1011

10-Day Weather Forecast

No radar image for this location.
×

Almanac

Astronomy

Feb. 11, 2016 Rise Set
Actual Time
Civil Twilight
Nautical Twilight
Astronomical Twilight
Moon
Length of Visible Light
Length of Day
Tomorrow will be .
, % of the Moon is Illuminated

Today's Extremes

Country Highs Country Lows

Community

WunderPhotos

Upload Photos

1,892,109 photos uploaded!

WunderBlog® & News

Nearby

Air Quality

  Air Quality AQ Index Pollutant
Not available.

Snow Depth

Station Depth Elevation

Earthquake Activity

City Distance Mag. Time & Date
Minimum magnitude displayed is 2.5.

Coastal Water Temperatures

Place Temperature

Stations

Nearby Weather Stations

Station Location Temp. Windchill Dew Point Humidity Wind Precip. Elev Updated Type